sensor_id;sensor_type;location;lat;lon;timestamp;P1;durP1;ratioP1;P2;durP2;ratioP2
30398;SDS011;17195;50.838;7.214;2023-05-07T00:01:23;4.38;;;1.65;;
30398;SDS011;17195;50.838;7.214;2023-05-07T00:03:49;1.65;;;1.55;;
30398;SDS011;17195;50.838;7.214;2023-05-07T00:06:14;3.58;;;1.90;;
30398;SDS011;17195;50.838;7.214;2023-05-07T00:08:40;6.13;;;1.85;;
30398;SDS011;17195;50.838;7.214;2023-05-07T00:11:05;2.45;;;1.70;;
30398;SDS011;17195;50.838;7.214;2023-05-07T00:13:31;2.22;;;1.95;;
30398;SDS011;17195;50.838;7.214;2023-05-07T00:16:00;2.13;;;1.92;;
30398;SDS011;17195;50.838;7.214;2023-05-07T00:18:28;4.63;;;2.22;;
30398;SDS011;17195;50.838;7.214;2023-05-07T00:20:54;2.22;;;2.03;;
30398;SDS011;17195;50.838;7.214;2023-05-07T00:23:21;1.83;;;1.70;;
30398;SDS011;17195;50.838;7.214;2023-05-07T00:25:47;2.60;;;1.77;;
30398;SDS011;17195;50.838;7.214;2023-05-07T00:28:12;1.80;;;1.70;;
30398;SDS011;17195;50.838;7.214;2023-05-07T00:30:38;2.28;;;1.83;;
30398;SDS011;17195;50.838;7.214;2023-05-07T00:33:03;2.70;;;1.77;;
30398;SDS011;17195;50.838;7.214;2023-05-07T00:35:29;4.20;;;1.98;;
30398;SDS011;17195;50.838;7.214;2023-05-07T00:37:55;3.22;;;1.85;;
30398;SDS011;17195;50.838;7.214;2023-05-07T00:40:20;4.53;;;2.00;;
30398;SDS011;17195;50.838;7.214;2023-05-07T00:42:46;3.38;;;2.20;;
30398;SDS011;17195;50.838;7.214;2023-05-07T00:45:14;2.08;;;1.80;;
30398;SDS011;17195;50.838;7.214;2023-05-07T00:47:40;2.28;;;1.80;;
30398;SDS011;17195;50.838;7.214;2023-05-07T00:50:06;3.10;;;1.83;;
30398;SDS011;17195;50.838;7.214;2023-05-07T00:52:33;3.60;;;1.50;;
30398;SDS011;17195;50.838;7.214;2023-05-07T00:55:00;1.75;;;1.55;;
30398;SDS011;17195;50.838;7.214;2023-05-07T00:57:29;3.60;;;1.90;;
30398;SDS011;17195;50.838;7.214;2023-05-07T01:00:05;5.60;;;2.40;;
30398;SDS011;17195;50.838;7.214;2023-05-07T01:02:33;1.90;;;1.80;;
30398;SDS011;17195;50.838;7.214;2023-05-07T01:04:59;4.28;;;1.98;;
30398;SDS011;17195;50.838;7.214;2023-05-07T01:07:26;3.33;;;1.80;;
30398;SDS011;17195;50.838;7.214;2023-05-07T01:09:52;2.60;;;2.05;;
30398;SDS011;17195;50.838;7.214;2023-05-07T01:12:18;5.13;;;2.28;;
30398;SDS011;17195;50.838;7.214;2023-05-07T01:14:44;3.35;;;2.17;;
30398;SDS011;17195;50.838;7.214;2023-05-07T01:17:10;2.20;;;2.00;;
30398;SDS011;17195;50.838;7.214;2023-05-07T01:19:35;4.25;;;2.10;;
30398;SDS011;17195;50.838;7.214;2023-05-07T01:22:02;3.17;;;2.47;;
30398;SDS011;17195;50.838;7.214;2023-05-07T01:24:29;4.00;;;2.70;;
30398;SDS011;17195;50.838;7.214;2023-05-07T01:26:56;6.95;;;2.75;;
30398;SDS011;17195;50.838;7.214;2023-05-07T01:29:22;6.03;;;2.60;;
30398;SDS011;17195;50.838;7.214;2023-05-07T01:31:47;3.97;;;2.38;;
30398;SDS011;17195;50.838;7.214;2023-05-07T01:34:13;3.45;;;2.03;;
30398;SDS011;17195;50.838;7.214;2023-05-07T01:36:42;4.50;;;2.13;;
30398;SDS011;17195;50.838;7.214;2023-05-07T01:39:08;4.10;;;1.83;;
30398;SDS011;17195;50.838;7.214;2023-05-07T01:41:34;2.50;;;1.65;;
30398;SDS011;17195;50.838;7.214;2023-05-07T01:44:00;4.22;;;2.13;;
30398;SDS011;17195;50.838;7.214;2023-05-07T01:46:27;2.22;;;1.80;;
30398;SDS011;17195;50.838;7.214;2023-05-07T01:48:53;1.95;;;1.65;;
30398;SDS011;17195;50.838;7.214;2023-05-07T01:51:19;3.40;;;1.65;;
30398;SDS011;17195;50.838;7.214;2023-05-07T01:53:46;2.80;;;1.70;;
30398;SDS011;17195;50.838;7.214;2023-05-07T01:56:15;4.63;;;1.95;;
30398;SDS011;17195;50.838;7.214;2023-05-07T01:58:45;4.97;;;1.80;;
30398;SDS011;17195;50.838;7.214;2023-05-07T02:01:14;3.95;;;1.75;;
30398;SDS011;17195;50.838;7.214;2023-05-07T02:03:39;3.55;;;1.60;;
30398;SDS011;17195;50.838;7.214;2023-05-07T02:06:05;2.30;;;1.75;;
30398;SDS011;17195;50.838;7.214;2023-05-07T02:08:31;3.17;;;2.13;;
30398;SDS011;17195;50.838;7.214;2023-05-07T02:10:56;2.85;;;2.38;;
30398;SDS011;17195;50.838;7.214;2023-05-07T02:13:22;6.63;;;3.15;;
30398;SDS011;17195;50.838;7.214;2023-05-07T02:15:49;4.32;;;2.88;;
30398;SDS011;17195;50.838;7.214;2023-05-07T02:18:15;3.47;;;2.47;;
30398;SDS011;17195;50.838;7.214;2023-05-07T02:20:42;2.00;;;1.80;;
30398;SDS011;17195;50.838;7.214;2023-05-07T02:23:07;1.75;;;1.65;;
30398;SDS011;17195;50.838;7.214;2023-05-07T02:25:33;6.38;;;1.98;;
30398;SDS011;17195;50.838;7.214;2023-05-07T02:27:59;2.90;;;1.65;;
30398;SDS011;17195;50.838;7.214;2023-05-07T02:30:24;2.20;;;2.10;;
30398;SDS011;17195;50.838;7.214;2023-05-07T02:32:50;2.90;;;1.80;;
30398;SDS011;17195;50.838;7.214;2023-05-07T02:35:16;6.65;;;2.10;;
30398;SDS011;17195;50.838;7.214;2023-05-07T02:37:42;1.90;;;1.58;;
30398;SDS011;17195;50.838;7.214;2023-05-07T02:40:08;2.00;;;1.85;;
30398;SDS011;17195;50.838;7.214;2023-05-07T02:42:34;1.83;;;1.73;;
30398;SDS011;17195;50.838;7.214;2023-05-07T02:44:59;3.50;;;2.00;;
30398;SDS011;17195;50.838;7.214;2023-05-07T02:47:25;1.80;;;1.70;;
30398;SDS011;17195;50.838;7.214;2023-05-07T02:49:53;2.72;;;2.10;;
30398;SDS011;17195;50.838;7.214;2023-05-07T02:52:19;3.90;;;2.22;;
30398;SDS011;17195;50.838;7.214;2023-05-07T02:54:44;4.55;;;3.10;;
30398;SDS011;17195;50.838;7.214;2023-05-07T02:57:10;4.18;;;2.83;;
30398;SDS011;17195;50.838;7.214;2023-05-07T02:59:35;3.53;;;1.98;;
30398;SDS011;17195;50.838;7.214;2023-05-07T03:02:01;2.40;;;2.00;;
30398;SDS011;17195;50.838;7.214;2023-05-07T03:04:27;2.08;;;1.83;;
30398;SDS011;17195;50.838;7.214;2023-05-07T03:06:52;5.35;;;1.88;;
30398;SDS011;17195;50.838;7.214;2023-05-07T03:09:18;2.05;;;1.77;;
30398;SDS011;17195;50.838;7.214;2023-05-07T03:11:44;2.38;;;1.80;;
30398;SDS011;17195;50.838;7.214;2023-05-07T03:14:09;3.45;;;2.40;;
30398;SDS011;17195;50.838;7.214;2023-05-07T03:16:35;3.50;;;2.28;;
30398;SDS011;17195;50.838;7.214;2023-05-07T03:19:01;3.95;;;2.05;;
30398;SDS011;17195;50.838;7.214;2023-05-07T03:21:26;3.13;;;2.20;;
30398;SDS011;17195;50.838;7.214;2023-05-07T03:23:52;7.00;;;2.28;;
30398;SDS011;17195;50.838;7.214;2023-05-07T03:26:18;3.05;;;2.20;;
30398;SDS011;17195;50.838;7.214;2023-05-07T03:28:43;3.45;;;2.50;;
30398;SDS011;17195;50.838;7.214;2023-05-07T03:31:09;4.22;;;2.22;;
30398;SDS011;17195;50.838;7.214;2023-05-07T03:33:35;4.15;;;2.75;;
30398;SDS011;17195;50.838;7.214;2023-05-07T03:36:03;3.50;;;2.33;;
30398;SDS011;17195;50.838;7.214;2023-05-07T03:38:29;3.60;;;2.15;;
30398;SDS011;17195;50.838;7.214;2023-05-07T03:40:55;5.50;;;2.42;;
30398;SDS011;17195;50.838;7.214;2023-05-07T03:43:20;2.25;;;1.98;;
30398;SDS011;17195;50.838;7.214;2023-05-07T03:45:46;2.90;;;1.98;;
30398;SDS011;17195;50.838;7.214;2023-05-07T03:48:11;3.92;;;2.10;;
30398;SDS011;17195;50.838;7.214;2023-05-07T03:50:37;3.38;;;2.03;;
30398;SDS011;17195;50.838;7.214;2023-05-07T03:53:03;3.03;;;2.05;;
30398;SDS011;17195;50.838;7.214;2023-05-07T03:55:28;6.80;;;2.55;;
30398;SDS011;17195;50.838;7.214;2023-05-07T03:57:54;3.55;;;1.92;;
30398;SDS011;17195;50.838;7.214;2023-05-07T04:00:21;5.90;;;2.08;;
30398;SDS011;17195;50.838;7.214;2023-05-07T04:02:47;2.10;;;1.90;;
30398;SDS011;17195;50.838;7.214;2023-05-07T04:05:12;3.42;;;2.10;;
30398;SDS011;17195;50.838;7.214;2023-05-07T04:07:40;1.95;;;1.75;;
30398;SDS011;17195;50.838;7.214;2023-05-07T04:10:05;2.97;;;2.35;;
30398;SDS011;17195;50.838;7.214;2023-05-07T04:12:31;2.17;;;1.80;;
30398;SDS011;17195;50.838;7.214;2023-05-07T04:14:57;2.40;;;2.10;;
30398;SDS011;17195;50.838;7.214;2023-05-07T04:17:22;3.05;;;2.10;;
30398;SDS011;17195;50.838;7.214;2023-05-07T04:19:48;3.22;;;2.30;;
30398;SDS011;17195;50.838;7.214;2023-05-07T04:22:13;4.85;;;2.42;;
30398;SDS011;17195;50.838;7.214;2023-05-07T04:24:39;6.50;;;3.53;;
30398;SDS011;17195;50.838;7.214;2023-05-07T04:27:04;8.70;;;4.75;;
30398;SDS011;17195;50.838;7.214;2023-05-07T04:29:31;12.05;;;5.60;;
30398;SDS011;17195;50.838;7.214;2023-05-07T04:31:56;11.25;;;4.97;;
30398;SDS011;17195;50.838;7.214;2023-05-07T04:34:23;9.05;;;5.10;;
30398;SDS011;17195;50.838;7.214;2023-05-07T04:36:49;8.25;;;3.80;;
30398;SDS011;17195;50.838;7.214;2023-05-07T04:39:14;6.80;;;2.97;;
30398;SDS011;17195;50.838;7.214;2023-05-07T04:41:41;6.40;;;2.75;;
30398;SDS011;17195;50.838;7.214;2023-05-07T04:44:06;4.75;;;2.10;;
30398;SDS011;17195;50.838;7.214;2023-05-07T04:46:32;2.45;;;1.75;;
30398;SDS011;17195;50.838;7.214;2023-05-07T04:48:57;1.67;;;1.58;;
30398;SDS011;17195;50.838;7.214;2023-05-07T04:51:23;2.53;;;1.60;;
30398;SDS011;17195;50.838;7.214;2023-05-07T04:53:48;2.17;;;1.90;;
30398;SDS011;17195;50.838;7.214;2023-05-07T04:56:14;4.35;;;2.25;;
30398;SDS011;17195;50.838;7.214;2023-05-07T04:58:40;6.22;;;1.77;;
30398;SDS011;17195;50.838;7.214;2023-05-07T05:01:05;2.95;;;2.10;;
30398;SDS011;17195;50.838;7.214;2023-05-07T05:03:31;2.17;;;1.83;;
30398;SDS011;17195;50.838;7.214;2023-05-07T05:05:56;2.80;;;1.98;;
30398;SDS011;17195;50.838;7.214;2023-05-07T05:08:24;3.38;;;2.13;;
30398;SDS011;17195;50.838;7.214;2023-05-07T05:10:50;2.25;;;1.70;;
30398;SDS011;17195;50.838;7.214;2023-05-07T05:13:15;1.67;;;1.58;;
30398;SDS011;17195;50.838;7.214;2023-05-07T05:15:41;2.75;;;2.13;;
30398;SDS011;17195;50.838;7.214;2023-05-07T05:18:07;3.13;;;2.20;;
30398;SDS011;17195;50.838;7.214;2023-05-07T05:20:32;3.42;;;2.20;;
30398;SDS011;17195;50.838;7.214;2023-05-07T05:22:58;3.40;;;1.77;;
30398;SDS011;17195;50.838;7.214;2023-05-07T05:25:23;1.98;;;1.88;;
30398;SDS011;17195;50.838;7.214;2023-05-07T05:27:49;3.25;;;1.58;;
30398;SDS011;17195;50.838;7.214;2023-05-07T05:30:14;1.88;;;1.65;;
30398;SDS011;17195;50.838;7.214;2023-05-07T05:32:40;3.08;;;2.00;;
30398;SDS011;17195;50.838;7.214;2023-05-07T05:35:06;2.08;;;1.90;;
30398;SDS011;17195;50.838;7.214;2023-05-07T05:37:31;2.17;;;1.80;;
30398;SDS011;17195;50.838;7.214;2023-05-07T05:39:57;4.25;;;2.10;;
30398;SDS011;17195;50.838;7.214;2023-05-07T05:42:23;6.15;;;1.92;;
30398;SDS011;17195;50.838;7.214;2023-05-07T05:44:48;4.85;;;2.40;;
30398;SDS011;17195;50.838;7.214;2023-05-07T05:47:14;4.53;;;2.30;;
30398;SDS011;17195;50.838;7.214;2023-05-07T05:49:39;2.92;;;2.08;;
30398;SDS011;17195;50.838;7.214;2023-05-07T05:52:05;5.97;;;2.10;;
30398;SDS011;17195;50.838;7.214;2023-05-07T05:54:31;3.03;;;2.20;;
30398;SDS011;17195;50.838;7.214;2023-05-07T05:56:56;2.03;;;1.75;;
30398;SDS011;17195;50.838;7.214;2023-05-07T05:59:22;2.42;;;2.17;;
30398;SDS011;17195;50.838;7.214;2023-05-07T06:01:48;2.72;;;1.80;;
30398;SDS011;17195;50.838;7.214;2023-05-07T06:04:13;2.33;;;2.00;;
30398;SDS011;17195;50.838;7.214;2023-05-07T06:06:39;3.00;;;1.73;;
30398;SDS011;17195;50.838;7.214;2023-05-07T06:09:04;2.58;;;1.80;;
30398;SDS011;17195;50.838;7.214;2023-05-07T06:11:31;2.88;;;1.98;;
30398;SDS011;17195;50.838;7.214;2023-05-07T06:13:57;4.10;;;1.70;;
30398;SDS011;17195;50.838;7.214;2023-05-07T06:16:24;1.83;;;1.63;;
30398;SDS011;17195;50.838;7.214;2023-05-07T06:18:50;3.40;;;1.92;;
30398;SDS011;17195;50.838;7.214;2023-05-07T06:21:15;2.10;;;1.48;;
30398;SDS011;17195;50.838;7.214;2023-05-07T06:23:41;2.92;;;1.92;;
30398;SDS011;17195;50.838;7.214;2023-05-07T06:26:06;4.78;;;1.52;;
30398;SDS011;17195;50.838;7.214;2023-05-07T06:28:32;2.03;;;1.70;;
30398;SDS011;17195;50.838;7.214;2023-05-07T06:31:19;5.30;;;1.98;;
30398;SDS011;17195;50.838;7.214;2023-05-07T06:33:48;1.70;;;1.35;;
30398;SDS011;17195;50.838;7.214;2023-05-07T06:36:14;1.70;;;1.60;;
30398;SDS011;17195;50.838;7.214;2023-05-07T06:38:40;1.65;;;1.55;;
30398;SDS011;17195;50.838;7.214;2023-05-07T06:41:06;2.17;;;1.90;;
30398;SDS011;17195;50.838;7.214;2023-05-07T06:43:32;3.08;;;1.80;;
30398;SDS011;17195;50.838;7.214;2023-05-07T06:45:58;1.85;;;1.70;;
30398;SDS011;17195;50.838;7.214;2023-05-07T06:48:23;2.15;;;1.50;;
30398;SDS011;17195;50.838;7.214;2023-05-07T06:50:49;5.15;;;1.52;;
30398;SDS011;17195;50.838;7.214;2023-05-07T06:53:15;2.33;;;1.73;;
30398;SDS011;17195;50.838;7.214;2023-05-07T06:55:40;1.52;;;1.20;;
30398;SDS011;17195;50.838;7.214;2023-05-07T06:58:06;3.95;;;1.58;;
30398;SDS011;17195;50.838;7.214;2023-05-07T07:00:32;3.95;;;1.95;;
30398;SDS011;17195;50.838;7.214;2023-05-07T07:02:58;3.70;;;1.67;;
30398;SDS011;17195;50.838;7.214;2023-05-07T07:05:25;2.25;;;1.30;;
30398;SDS011;17195;50.838;7.214;2023-05-07T07:07:50;1.52;;;1.38;;
30398;SDS011;17195;50.838;7.214;2023-05-07T07:10:19;4.00;;;1.40;;
30398;SDS011;17195;50.838;7.214;2023-05-07T07:12:45;1.98;;;1.65;;
30398;SDS011;17195;50.838;7.214;2023-05-07T07:15:11;5.00;;;1.60;;
30398;SDS011;17195;50.838;7.214;2023-05-07T07:17:36;4.40;;;1.95;;
30398;SDS011;17195;50.838;7.214;2023-05-07T07:20:02;4.15;;;1.40;;
30398;SDS011;17195;50.838;7.214;2023-05-07T07:22:28;1.52;;;1.40;;
30398;SDS011;17195;50.838;7.214;2023-05-07T07:24:54;4.03;;;1.40;;
30398;SDS011;17195;50.838;7.214;2023-05-07T07:27:19;1.15;;;1.02;;
30398;SDS011;17195;50.838;7.214;2023-05-07T07:29:45;2.08;;;1.00;;
30398;SDS011;17195;50.838;7.214;2023-05-07T07:32:11;1.88;;;1.30;;
30398;SDS011;17195;50.838;7.214;2023-05-07T07:34:36;2.92;;;1.42;;
30398;SDS011;17195;50.838;7.214;2023-05-07T07:37:02;2.42;;;1.20;;
30398;SDS011;17195;50.838;7.214;2023-05-07T07:39:30;1.45;;;1.10;;
30398;SDS011;17195;50.838;7.214;2023-05-07T07:41:56;1.75;;;1.30;;
30398;SDS011;17195;50.838;7.214;2023-05-07T07:44:22;1.25;;;1.10;;
30398;SDS011;17195;50.838;7.214;2023-05-07T07:46:48;4.80;;;1.30;;
30398;SDS011;17195;50.838;7.214;2023-05-07T07:49:14;3.28;;;1.30;;
30398;SDS011;17195;50.838;7.214;2023-05-07T07:51:39;1.88;;;1.10;;
30398;SDS011;17195;50.838;7.214;2023-05-07T07:54:05;2.50;;;1.20;;
30398;SDS011;17195;50.838;7.214;2023-05-07T07:56:32;4.13;;;1.50;;
30398;SDS011;17195;50.838;7.214;2023-05-07T07:58:58;1.50;;;1.23;;
30398;SDS011;17195;50.838;7.214;2023-05-07T08:01:24;2.85;;;1.15;;
30398;SDS011;17195;50.838;7.214;2023-05-07T08:03:49;1.60;;;1.40;;
30398;SDS011;17195;50.838;7.214;2023-05-07T08:06:15;2.15;;;1.35;;
30398;SDS011;17195;50.838;7.214;2023-05-07T08:08:40;1.65;;;1.10;;
30398;SDS011;17195;50.838;7.214;2023-05-07T08:11:06;1.85;;;1.25;;
30398;SDS011;17195;50.838;7.214;2023-05-07T08:13:32;1.77;;;1.20;;
30398;SDS011;17195;50.838;7.214;2023-05-07T08:15:57;2.70;;;1.10;;
30398;SDS011;17195;50.838;7.214;2023-05-07T08:18:23;2.22;;;1.20;;
30398;SDS011;17195;50.838;7.214;2023-05-07T08:20:50;2.25;;;1.42;;
30398;SDS011;17195;50.838;7.214;2023-05-07T08:23:15;1.50;;;1.33;;
30398;SDS011;17195;50.838;7.214;2023-05-07T08:25:41;2.45;;;1.25;;
30398;SDS011;17195;50.838;7.214;2023-05-07T08:28:07;1.50;;;1.13;;
30398;SDS011;17195;50.838;7.214;2023-05-07T08:30:33;4.22;;;1.33;;
30398;SDS011;17195;50.838;7.214;2023-05-07T08:32:59;2.38;;;1.10;;
30398;SDS011;17195;50.838;7.214;2023-05-07T08:35:25;2.15;;;1.30;;
30398;SDS011;17195;50.838;7.214;2023-05-07T08:37:51;1.00;;;0.90;;
30398;SDS011;17195;50.838;7.214;2023-05-07T08:40:17;1.17;;;1.08;;
30398;SDS011;17195;50.838;7.214;2023-05-07T08:42:43;8.48;;;1.20;;
30398;SDS011;17195;50.838;7.214;2023-05-07T08:45:09;1.17;;;0.88;;
30398;SDS011;17195;50.838;7.214;2023-05-07T08:47:41;1.67;;;1.20;;
30398;SDS011;17195;50.838;7.214;2023-05-07T08:50:10;2.25;;;1.35;;
30398;SDS011;17195;50.838;7.214;2023-05-07T08:52:36;1.13;;;0.93;;
30398;SDS011;17195;50.838;7.214;2023-05-07T08:55:02;2.03;;;1.20;;
30398;SDS011;17195;50.838;7.214;2023-05-07T08:57:28;2.55;;;1.23;;
30398;SDS011;17195;50.838;7.214;2023-05-07T08:59:54;4.53;;;1.27;;
30398;SDS011;17195;50.838;7.214;2023-05-07T09:02:20;1.48;;;0.93;;
30398;SDS011;17195;50.838;7.214;2023-05-07T09:04:45;1.85;;;1.27;;
30398;SDS011;17195;50.838;7.214;2023-05-07T09:07:11;2.88;;;1.10;;
30398;SDS011;17195;50.838;7.214;2023-05-07T09:09:36;1.33;;;1.20;;
30398;SDS011;17195;50.838;7.214;2023-05-07T09:12:02;1.40;;;1.20;;
30398;SDS011;17195;50.838;7.214;2023-05-07T09:14:28;2.58;;;1.40;;
30398;SDS011;17195;50.838;7.214;2023-05-07T09:16:55;1.38;;;1.00;;
30398;SDS011;17195;50.838;7.214;2023-05-07T09:19:24;2.08;;;1.20;;
30398;SDS011;17195;50.838;7.214;2023-05-07T09:21:57;2.92;;;1.00;;
30398;SDS011;17195;50.838;7.214;2023-05-07T09:24:24;1.80;;;1.05;;
30398;SDS011;17195;50.838;7.214;2023-05-07T09:26:50;3.65;;;1.15;;
30398;SDS011;17195;50.838;7.214;2023-05-07T09:29:15;5.05;;;1.10;;
30398;SDS011;17195;50.838;7.214;2023-05-07T09:31:42;5.53;;;1.30;;
30398;SDS011;17195;50.838;7.214;2023-05-07T09:34:07;1.23;;;1.08;;
30398;SDS011;17195;50.838;7.214;2023-05-07T09:36:33;3.00;;;1.20;;
30398;SDS011;17195;50.838;7.214;2023-05-07T09:39:00;1.58;;;1.13;;
30398;SDS011;17195;50.838;7.214;2023-05-07T09:41:25;1.88;;;1.15;;
30398;SDS011;17195;50.838;7.214;2023-05-07T09:43:54;1.48;;;1.00;;
30398;SDS011;17195;50.838;7.214;2023-05-07T09:46:22;1.15;;;0.90;;
30398;SDS011;17195;50.838;7.214;2023-05-07T09:48:52;3.13;;;1.40;;
30398;SDS011;17195;50.838;7.214;2023-05-07T09:51:22;1.55;;;1.10;;
30398;SDS011;17195;50.838;7.214;2023-05-07T09:53:52;2.85;;;1.10;;
30398;SDS011;17195;50.838;7.214;2023-05-07T09:56:18;1.42;;;1.00;;
30398;SDS011;17195;50.838;7.214;2023-05-07T09:58:45;1.10;;;1.00;;
30398;SDS011;17195;50.838;7.214;2023-05-07T10:01:12;1.52;;;0.90;;
30398;SDS011;17195;50.838;7.214;2023-05-07T10:03:39;1.42;;;0.98;;
30398;SDS011;17195;50.838;7.214;2023-05-07T10:06:08;3.50;;;1.02;;
30398;SDS011;17195;50.838;7.214;2023-05-07T10:08:35;1.67;;;1.00;;
30398;SDS011;17195;50.838;7.214;2023-05-07T10:11:02;5.50;;;1.80;;
30398;SDS011;17195;50.838;7.214;2023-05-07T10:13:29;1.90;;;1.33;;
30398;SDS011;17195;50.838;7.214;2023-05-07T10:15:54;1.63;;;1.38;;
30398;SDS011;17195;50.838;7.214;2023-05-07T10:18:21;1.88;;;1.17;;
30398;SDS011;17195;50.838;7.214;2023-05-07T10:20:54;2.00;;;1.10;;
30398;SDS011;17195;50.838;7.214;2023-05-07T10:23:23;2.70;;;1.10;;
30398;SDS011;17195;50.838;7.214;2023-05-07T10:25:50;3.30;;;1.17;;
30398;SDS011;17195;50.838;7.214;2023-05-07T10:28:18;3.35;;;1.25;;
30398;SDS011;17195;50.838;7.214;2023-05-07T10:33:23;9.57;;;1.10;;
30398;SDS011;17195;50.838;7.214;2023-05-07T10:35:51;7.65;;;0.93;;
30398;SDS011;17195;50.838;7.214;2023-05-07T10:38:24;1.50;;;1.13;;
30398;SDS011;17195;50.838;7.214;2023-05-07T10:40:50;2.35;;;1.20;;
30398;SDS011;17195;50.838;7.214;2023-05-07T10:43:16;1.40;;;1.17;;
30398;SDS011;17195;50.838;7.214;2023-05-07T10:45:42;1.25;;;0.90;;
30398;SDS011;17195;50.838;7.214;2023-05-07T10:48:08;2.28;;;0.80;;
30398;SDS011;17195;50.838;7.214;2023-05-07T10:50:35;3.08;;;1.40;;
30398;SDS011;17195;50.838;7.214;2023-05-07T10:55:49;3.47;;;1.20;;
30398;SDS011;17195;50.838;7.214;2023-05-07T10:58:27;1.48;;;0.98;;
30398;SDS011;17195;50.838;7.214;2023-05-07T11:00:56;2.60;;;1.20;;
30398;SDS011;17195;50.838;7.214;2023-05-07T11:03:23;1.98;;;1.00;;
30398;SDS011;17195;50.838;7.214;2023-05-07T11:06:09;1.20;;;0.80;;
30398;SDS011;17195;50.838;7.214;2023-05-07T11:14:13;1.67;;;1.15;;
30398;SDS011;17195;50.838;7.214;2023-05-07T11:16:40;3.60;;;1.08;;
30398;SDS011;17195;50.838;7.214;2023-05-07T11:19:08;2.42;;;0.98;;
30398;SDS011;17195;50.838;7.214;2023-05-07T11:21:40;1.63;;;0.88;;
30398;SDS011;17195;50.838;7.214;2023-05-07T11:24:07;1.88;;;0.80;;
30398;SDS011;17195;50.838;7.214;2023-05-07T11:26:49;1.92;;;1.08;;
30398;SDS011;17195;50.838;7.214;2023-05-07T11:31:41;0.90;;;0.80;;
30398;SDS011;17195;50.838;7.214;2023-05-07T11:34:07;1.83;;;0.80;;
30398;SDS011;17195;50.838;7.214;2023-05-07T11:36:34;1.30;;;0.90;;
30398;SDS011;17195;50.838;7.214;2023-05-07T11:39:00;0.93;;;0.80;;
30398;SDS011;17195;50.838;7.214;2023-05-07T11:41:35;2.88;;;0.95;;
30398;SDS011;17195;50.838;7.214;2023-05-07T11:44:04;1.58;;;0.88;;
30398;SDS011;17195;50.838;7.214;2023-05-07T11:46:30;4.45;;;1.40;;
30398;SDS011;17195;50.838;7.214;2023-05-07T11:48:56;1.45;;;1.05;;
30398;SDS011;17195;50.838;7.214;2023-05-07T11:51:25;4.28;;;1.20;;
30398;SDS011;17195;50.838;7.214;2023-05-07T11:53:51;2.25;;;1.23;;
30398;SDS011;17195;50.838;7.214;2023-05-07T11:56:18;3.33;;;0.70;;
30398;SDS011;17195;50.838;7.214;2023-05-07T11:58:44;0.82;;;0.70;;
30398;SDS011;17195;50.838;7.214;2023-05-07T12:01:11;1.05;;;0.63;;
30398;SDS011;17195;50.838;7.214;2023-05-07T12:03:41;2.35;;;0.95;;
30398;SDS011;17195;50.838;7.214;2023-05-07T12:06:09;1.40;;;0.70;;
30398;SDS011;17195;50.838;7.214;2023-05-07T12:08:36;3.92;;;1.05;;
30398;SDS011;17195;50.838;7.214;2023-05-07T12:11:03;1.02;;;0.77;;
30398;SDS011;17195;50.838;7.214;2023-05-07T12:13:31;4.22;;;1.00;;
30398;SDS011;17195;50.838;7.214;2023-05-07T12:15:57;2.05;;;0.88;;
30398;SDS011;17195;50.838;7.214;2023-05-07T12:18:23;1.58;;;0.90;;
30398;SDS011;17195;50.838;7.214;2023-05-07T12:20:49;2.72;;;0.80;;
30398;SDS011;17195;50.838;7.214;2023-05-07T12:23:15;1.35;;;0.70;;
30398;SDS011;17195;50.838;7.214;2023-05-07T12:25:42;1.33;;;1.00;;
30398;SDS011;17195;50.838;7.214;2023-05-07T12:28:15;1.55;;;0.90;;
30398;SDS011;17195;50.838;7.214;2023-05-07T12:30:45;2.28;;;0.88;;
30398;SDS011;17195;50.838;7.214;2023-05-07T12:33:12;2.22;;;0.80;;
30398;SDS011;17195;50.838;7.214;2023-05-07T12:35:41;1.40;;;0.90;;
30398;SDS011;17195;50.838;7.214;2023-05-07T12:38:08;3.45;;;0.90;;
30398;SDS011;17195;50.838;7.214;2023-05-07T12:40:39;1.20;;;0.70;;
30398;SDS011;17195;50.838;7.214;2023-05-07T12:43:06;2.08;;;0.90;;
30398;SDS011;17195;50.838;7.214;2023-05-07T12:45:36;1.20;;;0.90;;
30398;SDS011;17195;50.838;7.214;2023-05-07T12:48:03;2.35;;;1.00;;
30398;SDS011;17195;50.838;7.214;2023-05-07T12:50:32;2.45;;;0.98;;
30398;SDS011;17195;50.838;7.214;2023-05-07T12:52:58;2.45;;;1.05;;
30398;SDS011;17195;50.838;7.214;2023-05-07T12:55:24;1.00;;;0.90;;
30398;SDS011;17195;50.838;7.214;2023-05-07T12:57:49;1.77;;;0.98;;
30398;SDS011;17195;50.838;7.214;2023-05-07T13:00:16;2.35;;;1.00;;
30398;SDS011;17195;50.838;7.214;2023-05-07T13:02:43;2.75;;;1.15;;
30398;SDS011;17195;50.838;7.214;2023-05-07T13:05:10;1.73;;;1.23;;
30398;SDS011;17195;50.838;7.214;2023-05-07T13:07:36;2.03;;;1.30;;
30398;SDS011;17195;50.838;7.214;2023-05-07T13:10:02;2.92;;;1.10;;
30398;SDS011;17195;50.838;7.214;2023-05-07T13:12:29;1.42;;;1.10;;
30398;SDS011;17195;50.838;7.214;2023-05-07T13:14:54;2.20;;;0.98;;
30398;SDS011;17195;50.838;7.214;2023-05-07T13:17:20;1.48;;;1.00;;
30398;SDS011;17195;50.838;7.214;2023-05-07T13:19:46;2.13;;;1.20;;
30398;SDS011;17195;50.838;7.214;2023-05-07T13:22:11;1.30;;;1.00;;
30398;SDS011;17195;50.838;7.214;2023-05-07T13:24:37;2.58;;;1.00;;
30398;SDS011;17195;50.838;7.214;2023-05-07T13:27:03;1.73;;;1.20;;
30398;SDS011;17195;50.838;7.214;2023-05-07T13:29:29;1.33;;;1.08;;
30398;SDS011;17195;50.838;7.214;2023-05-07T13:31:57;2.72;;;1.00;;
30398;SDS011;17195;50.838;7.214;2023-05-07T13:34:24;1.52;;;1.13;;
30398;SDS011;17195;50.838;7.214;2023-05-07T13:36:49;3.60;;;1.67;;
30398;SDS011;17195;50.838;7.214;2023-05-07T13:39:15;3.13;;;1.40;;
30398;SDS011;17195;50.838;7.214;2023-05-07T13:41:41;3.53;;;1.80;;
30398;SDS011;17195;50.838;7.214;2023-05-07T13:44:06;4.68;;;1.60;;
30398;SDS011;17195;50.838;7.214;2023-05-07T13:46:32;5.03;;;1.77;;
30398;SDS011;17195;50.838;7.214;2023-05-07T13:48:57;6.20;;;1.70;;
30398;SDS011;17195;50.838;7.214;2023-05-07T13:51:23;3.55;;;1.63;;
30398;SDS011;17195;50.838;7.214;2023-05-07T13:53:49;3.85;;;1.90;;
30398;SDS011;17195;50.838;7.214;2023-05-07T13:56:14;3.83;;;2.42;;
30398;SDS011;17195;50.838;7.214;2023-05-07T13:58:40;3.80;;;1.60;;
30398;SDS011;17195;50.838;7.214;2023-05-07T14:01:06;1.95;;;1.40;;
30398;SDS011;17195;50.838;7.214;2023-05-07T14:03:31;4.38;;;1.40;;
30398;SDS011;17195;50.838;7.214;2023-05-07T14:05:58;1.83;;;1.38;;
30398;SDS011;17195;50.838;7.214;2023-05-07T14:08:26;2.40;;;1.70;;
30398;SDS011;17195;50.838;7.214;2023-05-07T14:10:52;5.45;;;1.98;;
30398;SDS011;17195;50.838;7.214;2023-05-07T14:13:17;2.92;;;1.70;;
30398;SDS011;17195;50.838;7.214;2023-05-07T14:15:43;5.45;;;1.73;;
30398;SDS011;17195;50.838;7.214;2023-05-07T14:18:11;2.00;;;1.65;;
30398;SDS011;17195;50.838;7.214;2023-05-07T14:20:37;2.22;;;1.67;;
30398;SDS011;17195;50.838;7.214;2023-05-07T14:23:03;6.00;;;2.78;;
30398;SDS011;17195;50.838;7.214;2023-05-07T14:25:29;6.85;;;3.90;;
30398;SDS011;17195;50.838;7.214;2023-05-07T14:27:54;5.78;;;2.67;;
30398;SDS011;17195;50.838;7.214;2023-05-07T14:30:20;2.88;;;2.10;;
30398;SDS011;17195;50.838;7.214;2023-05-07T14:32:47;3.83;;;2.03;;
30398;SDS011;17195;50.838;7.214;2023-05-07T14:35:12;3.15;;;1.73;;
30398;SDS011;17195;50.838;7.214;2023-05-07T14:37:38;2.35;;;1.45;;
30398;SDS011;17195;50.838;7.214;2023-05-07T14:40:04;1.55;;;1.20;;
30398;SDS011;17195;50.838;7.214;2023-05-07T14:42:30;1.98;;;1.40;;
30398;SDS011;17195;50.838;7.214;2023-05-07T14:44:55;2.35;;;1.50;;
30398;SDS011;17195;50.838;7.214;2023-05-07T14:47:21;4.00;;;1.35;;
30398;SDS011;17195;50.838;7.214;2023-05-07T14:49:46;1.35;;;1.25;;
30398;SDS011;17195;50.838;7.214;2023-05-07T14:52:12;2.42;;;1.60;;
30398;SDS011;17195;50.838;7.214;2023-05-07T14:54:37;2.85;;;1.23;;
30398;SDS011;17195;50.838;7.214;2023-05-07T14:57:04;2.80;;;1.30;;